Adriana — 9A6282 — position and weather

sailwx.info

Track history (hours):
 
Tides and Currents Weather Stations Pressure Air Temp Water Temp Dewpoint Dewpoint Depression Visibility Wind Speed Wind Dir Waves Ship Positions

Adriana

Last reported at 2017-Jul-23 09:38 UTC. Time now 2017-Jul-23 14:50 UTC.
Position N 45°18' E 014°26'.

Length 40 m; beam 10 m.

Type: High speed craft. MMSI: 238112440.

Date/timePositionNaut miles runAvg speedWind from/ knotsBaromVisibWave heightAir tempDewpointWater temp
2017-Jul-23 09:38N 45°18' E 014°26'323.5
2017-Jul-23 09:30N 45°15' E 014°26'1223.0
2017-Jul-23 08:58N 45°03' E 014°26'1123.1
2017-Jul-23 08:29N 44°53' E 014°34'6 0.4
2017-Jul-22 16:05N 44°58' E 014°29'522.8
2017-Jul-22 15:52N 45°03' E 014°26'922.1
2017-Jul-22 15:28N 45°11' E 014°26'8 0.9
2017-Jul-22 06:35N 45°19' E 014°26'223.0
2017-Jul-22 06:30N 45°18' E 014°26'1325.3
2017-Jul-22 05:59N 45°04' E 014°25'14 1.0
2017-Jul-21 16:22N 44°52' E 014°35'822.2
2017-Jul-21 16:00N 44°59' E 014°29'1121.0
2017-Jul-21 15:30N 45°09' E 014°26'9 1.0
2017-Jul-21 06:36N 45°18' E 014°26'324.1
2017-Jul-21 06:29N 45°15' E 014°26'1323.7
2017-Jul-21 05:57N 45°03' E 014°26'16 1.2
2017-Jul-20 16:35N 44°48' E 014°38'423.0
2017-Jul-20 16:24N 44°52' E 014°35'1223.1
2017-Jul-20 15:53N 45°03' E 014°26'822.5
2017-Jul-20 15:30N 45°11' E 014°26'6 0.7
2017-Jul-20 06:36N 45°17' E 014°26'223.5
2017-Jul-20 06:30N 45°15' E 014°26'1223.1
2017-Jul-20 05:59N 45°03' E 014°26'8 0.6
2017-Jul-19 16:10N 44°55' E 014°32'1421.4
2017-Jul-19 15:29N 45°09' E 014°26'9 1.0
2017-Jul-19 06:36N 45°18' E 014°26'224.7
2017-Jul-19 06:30N 45°16' E 014°25'1624.3
2017-Jul-19 05:52N 45°00' E 014°28'2 0.2
2017-Jul-18 15:47N 45°02' E 014°27'1123.5
2017-Jul-18 15:19N 45°13' E 014°26'5 0.5
2017-Jul-18 06:35N 45°18' E 014°26'223.9
2017-Jul-18 06:31N 45°16' E 014°26'1323.9
2017-Jul-18 05:58N 45°03' E 014°26'1523.9
2017-Jul-18 05:20N 44°50' E 014°36'9 0.7
2017-Jul-17 16:03N 44°58' E 014°30'122.9
2017-Jul-17 16:01N 44°58' E 014°29'1222.4
2017-Jul-17 15:29N 45°10' E 014°26'9 1.0
2017-Jul-17 06:41N 45°19' E 014°26'423.0
2017-Jul-17 06:30N 45°15' E 014°25'1223.1
2017-Jul-17 05:59N 45°03' E 014°26'1623.3
2017-Jul-17 05:16N 44°48' E 014°38'16 1.2
2017-Jul-16 15:47N 45°02' E 014°27'822.2
2017-Jul-16 15:26N 45°10' E 014°26'8 1.3
2017-Jul-16 09:44N 45°18' E 014°26'622.4
2017-Jul-16 09:29N 45°12' E 014°26'8 0.5
2017-Jul-15 15:43N 45°04' E 014°26'623.2
2017-Jul-15 15:28N 45°09' E 014°26'9 1.0
2017-Jul-15 06:36N 45°18' E 014°26'224.3
2017-Jul-15 06:30N 45°16' E 014°26'1224.4
2017-Jul-15 06:00N 45°04' E 014°26'12 0.9
2017-Jul-14 16:22N 44°53' E 014°34'2022.1
2017-Jul-14 15:29N 45°12' E 014°26'7 0.8
2017-Jul-14 06:51N 45°18' E 014°26'1322.4
2017-Jul-14 06:17N 45°06' E 014°25'7 0.5
2017-Jul-13 15:22N 45°13' E 014°26'  
Track history (hours):
 
Tides and Currents Weather Stations Pressure Air Temp Water Temp Dewpoint Dewpoint Depression Visibility Wind Speed Wind Dir Waves Ship Positions

Adriana

Last reported at 2017-Jul-23 09:38 UTC. Time now 2017-Jul-23 14:50 UTC.
Position N 45°18' E 014°26'.

Length 40 m; beam 10 m.

Type: High speed craft. MMSI: 238112440.

Date/timePositionNaut miles runAvg speedWind from/ knotsBaromVisibWave heightAir tempDewpointWater temp
2017-Jul-23 09:38N 45°18' E 014°26'323.5
2017-Jul-23 09:30N 45°15' E 014°26'1223.0
2017-Jul-23 08:58N 45°03' E 014°26'1123.1
2017-Jul-23 08:29N 44°53' E 014°34'6 0.4
2017-Jul-22 16:05N 44°58' E 014°29'522.8
2017-Jul-22 15:52N 45°03' E 014°26'922.1
2017-Jul-22 15:28N 45°11' E 014°26'8 0.9
2017-Jul-22 06:35N 45°19' E 014°26'223.0
2017-Jul-22 06:30N 45°18' E 014°26'1325.3
2017-Jul-22 05:59N 45°04' E 014°25'14 1.0
2017-Jul-21 16:22N 44°52' E 014°35'822.2
2017-Jul-21 16:00N 44°59' E 014°29'1121.0
2017-Jul-21 15:30N 45°09' E 014°26'9 1.0
2017-Jul-21 06:36N 45°18' E 014°26'324.1
2017-Jul-21 06:29N 45°15' E 014°26'1323.7
2017-Jul-21 05:57N 45°03' E 014°26'16 1.2
2017-Jul-20 16:35N 44°48' E 014°38'423.0
2017-Jul-20 16:24N 44°52' E 014°35'1223.1
2017-Jul-20 15:53N 45°03' E 014°26'822.5
2017-Jul-20 15:30N 45°11' E 014°26'6 0.7
2017-Jul-20 06:36N 45°17' E 014°26'223.5
2017-Jul-20 06:30N 45°15' E 014°26'1223.1
2017-Jul-20 05:59N 45°03' E 014°26'8 0.6
2017-Jul-19 16:10N 44°55' E 014°32'1421.4
2017-Jul-19 15:29N 45°09' E 014°26'9 1.0
2017-Jul-19 06:36N 45°18' E 014°26'224.7
2017-Jul-19 06:30N 45°16' E 014°25'1624.3
2017-Jul-19 05:52N 45°00' E 014°28'2 0.2
2017-Jul-18 15:47N 45°02' E 014°27'1123.5
2017-Jul-18 15:19N 45°13' E 014°26'5 0.5
2017-Jul-18 06:35N 45°18' E 014°26'223.9
2017-Jul-18 06:31N 45°16' E 014°26'1323.9
2017-Jul-18 05:58N 45°03' E 014°26'1523.9
2017-Jul-18 05:20N 44°50' E 014°36'9 0.7
2017-Jul-17 16:03N 44°58' E 014°30'122.9
2017-Jul-17 16:01N 44°58' E 014°29'1222.4
2017-Jul-17 15:29N 45°10' E 014°26'9 1.0
2017-Jul-17 06:41N 45°19' E 014°26'423.0
2017-Jul-17 06:30N 45°15' E 014°25'1223.1
2017-Jul-17 05:59N 45°03' E 014°26'1623.3
2017-Jul-17 05:16N 44°48' E 014°38'16 1.2
2017-Jul-16 15:47N 45°02' E 014°27'822.2
2017-Jul-16 15:26N 45°10' E 014°26'8 1.3
2017-Jul-16 09:44N 45°18' E 014°26'622.4
2017-Jul-16 09:29N 45°12' E 014°26'8 0.5
2017-Jul-15 15:43N 45°04' E 014°26'623.2
2017-Jul-15 15:28N 45°09' E 014°26'9 1.0
2017-Jul-15 06:36N 45°18' E 014°26'224.3
2017-Jul-15 06:30N 45°16' E 014°26'1224.4
2017-Jul-15 06:00N 45°04' E 014°26'12 0.9
2017-Jul-14 16:22N 44°53' E 014°34'2022.1
2017-Jul-14 15:29N 45°12' E 014°26'7 0.8
2017-Jul-14 06:51N 45°18' E 014°26'1322.4
2017-Jul-14 06:17N 45°06' E 014°25'7 0.5
2017-Jul-13 15:22N 45°13' E 014°26'  

Dump ship's entire track history